sensor_id;sensor_type;location;lat;lon;timestamp;temperature;humidity
30678;DHT22;73746;47.466;8.992;2024-03-17T00:02:00;7.30;99.90
30678;DHT22;73746;47.466;8.992;2024-03-17T00:04:32;7.30;99.90
30678;DHT22;73746;47.466;8.992;2024-03-17T00:07:04;7.30;99.90
30678;DHT22;73746;47.466;8.992;2024-03-17T00:09:36;7.30;99.90
30678;DHT22;73746;47.466;8.992;2024-03-17T00:12:09;7.30;99.90
30678;DHT22;73746;47.466;8.992;2024-03-17T00:14:41;7.30;99.90
30678;DHT22;73746;47.466;8.992;2024-03-17T00:17:15;7.30;99.90
30678;DHT22;73746;47.466;8.992;2024-03-17T00:19:46;7.30;99.90
30678;DHT22;73746;47.466;8.992;2024-03-17T00:22:18;7.30;99.90
30678;DHT22;73746;47.466;8.992;2024-03-17T00:24:50;7.20;99.90
30678;DHT22;73746;47.466;8.992;2024-03-17T00:27:22;7.30;99.90
30678;DHT22;73746;47.466;8.992;2024-03-17T00:29:53;7.40;99.90
30678;DHT22;73746;47.466;8.992;2024-03-17T00:32:25;7.40;99.90
30678;DHT22;73746;47.466;8.992;2024-03-17T00:34:57;7.30;99.90
30678;DHT22;73746;47.466;8.992;2024-03-17T00:37:29;7.30;99.90
30678;DHT22;73746;47.466;8.992;2024-03-17T00:40:01;7.20;99.90
30678;DHT22;73746;47.466;8.992;2024-03-17T00:42:33;7.20;99.90
30678;DHT22;73746;47.466;8.992;2024-03-17T00:45:08;7.10;99.90
30678;DHT22;73746;47.466;8.992;2024-03-17T00:47:40;7.10;99.90
30678;DHT22;73746;47.466;8.992;2024-03-17T00:50:12;7.00;99.90
30678;DHT22;73746;47.466;8.992;2024-03-17T00:52:44;7.00;99.90
30678;DHT22;73746;47.466;8.992;2024-03-17T00:55:16;7.00;99.90
30678;DHT22;73746;47.466;8.992;2024-03-17T00:57:48;7.10;99.90
30678;DHT22;73746;47.466;8.992;2024-03-17T01:00:20;7.20;99.90
30678;DHT22;73746;47.466;8.992;2024-03-17T01:02:51;7.30;99.90
30678;DHT22;73746;47.466;8.992;2024-03-17T01:05:23;7.30;99.90
30678;DHT22;73746;47.466;8.992;2024-03-17T01:07:54;7.30;99.90
30678;DHT22;73746;47.466;8.992;2024-03-17T01:10:26;7.40;99.90
30678;DHT22;73746;47.466;8.992;2024-03-17T01:12:58;7.30;99.90
30678;DHT22;73746;47.466;8.992;2024-03-17T01:15:30;7.40;99.90
30678;DHT22;73746;47.466;8.992;2024-03-17T01:18:01;7.40;99.90
30678;DHT22;73746;47.466;8.992;2024-03-17T01:20:36;7.40;99.90
30678;DHT22;73746;47.466;8.992;2024-03-17T01:23:08;7.40;99.90
30678;DHT22;73746;47.466;8.992;2024-03-17T01:25:41;7.40;99.90
30678;DHT22;73746;47.466;8.992;2024-03-17T01:28:13;7.40;99.90
30678;DHT22;73746;47.466;8.992;2024-03-17T01:30:45;7.50;99.90
30678;DHT22;73746;47.466;8.992;2024-03-17T01:33:17;7.50;99.90
30678;DHT22;73746;47.466;8.992;2024-03-17T01:35:49;7.50;99.90
30678;DHT22;73746;47.466;8.992;2024-03-17T01:38:21;7.50;99.90
30678;DHT22;73746;47.466;8.992;2024-03-17T01:40:53;7.50;99.90
30678;DHT22;73746;47.466;8.992;2024-03-17T01:43:26;7.50;99.90
30678;DHT22;73746;47.466;8.992;2024-03-17T01:45:59;7.50;99.90
30678;DHT22;73746;47.466;8.992;2024-03-17T01:48:32;7.40;99.90
30678;DHT22;73746;47.466;8.992;2024-03-17T01:51:08;7.50;99.90
30678;DHT22;73746;47.466;8.992;2024-03-17T01:53:43;7.50;99.90
30678;DHT22;73746;47.466;8.992;2024-03-17T01:56:17;7.60;99.90
30678;DHT22;73746;47.466;8.992;2024-03-17T01:58:49;7.60;99.90
30678;DHT22;73746;47.466;8.992;2024-03-17T02:01:21;7.60;99.90
30678;DHT22;73746;47.466;8.992;2024-03-17T02:03:53;7.60;99.90
30678;DHT22;73746;47.466;8.992;2024-03-17T02:06:25;7.60;99.90
30678;DHT22;73746;47.466;8.992;2024-03-17T02:08:57;7.60;99.90
30678;DHT22;73746;47.466;8.992;2024-03-17T02:11:30;7.60;99.90
30678;DHT22;73746;47.466;8.992;2024-03-17T02:14:02;7.50;99.90
30678;DHT22;73746;47.466;8.992;2024-03-17T02:16:33;7.50;99.90
30678;DHT22;73746;47.466;8.992;2024-03-17T02:19:05;7.40;99.90
30678;DHT22;73746;47.466;8.992;2024-03-17T02:21:37;7.30;99.90
30678;DHT22;73746;47.466;8.992;2024-03-17T02:24:09;7.20;99.90
30678;DHT22;73746;47.466;8.992;2024-03-17T02:26:41;7.20;99.90
30678;DHT22;73746;47.466;8.992;2024-03-17T02:29:14;7.10;99.90
30678;DHT22;73746;47.466;8.992;2024-03-17T02:31:46;7.10;99.90
30678;DHT22;73746;47.466;8.992;2024-03-17T02:34:18;7.10;99.90
30678;DHT22;73746;47.466;8.992;2024-03-17T02:36:49;7.10;99.90
30678;DHT22;73746;47.466;8.992;2024-03-17T02:39:21;7.10;99.90
30678;DHT22;73746;47.466;8.992;2024-03-17T02:42:06;7.10;99.90
30678;DHT22;73746;47.466;8.992;2024-03-17T02:44:38;7.10;99.90
30678;DHT22;73746;47.466;8.992;2024-03-17T02:47:11;7.10;99.90
30678;DHT22;73746;47.466;8.992;2024-03-17T02:49:44;7.00;99.90
30678;DHT22;73746;47.466;8.992;2024-03-17T02:52:18;6.90;99.90
30678;DHT22;73746;47.466;8.992;2024-03-17T02:54:49;6.80;99.90
30678;DHT22;73746;47.466;8.992;2024-03-17T02:57:25;6.80;99.90
30678;DHT22;73746;47.466;8.992;2024-03-17T02:59:59;6.80;99.90
30678;DHT22;73746;47.466;8.992;2024-03-17T03:02:32;6.70;99.90
30678;DHT22;73746;47.466;8.992;2024-03-17T03:05:05;6.70;99.90
30678;DHT22;73746;47.466;8.992;2024-03-17T03:07:37;6.60;99.90
30678;DHT22;73746;47.466;8.992;2024-03-17T03:10:10;6.60;99.90
30678;DHT22;73746;47.466;8.992;2024-03-17T03:12:41;6.60;99.90
30678;DHT22;73746;47.466;8.992;2024-03-17T03:15:13;6.60;99.90
30678;DHT22;73746;47.466;8.992;2024-03-17T03:17:45;6.70;99.90
30678;DHT22;73746;47.466;8.992;2024-03-17T03:20:17;6.70;99.90
30678;DHT22;73746;47.466;8.992;2024-03-17T03:22:48;6.60;99.90
30678;DHT22;73746;47.466;8.992;2024-03-17T03:25:20;6.60;99.90
30678;DHT22;73746;47.466;8.992;2024-03-17T03:27:52;6.50;99.90
30678;DHT22;73746;47.466;8.992;2024-03-17T03:30:26;6.50;99.90
30678;DHT22;73746;47.466;8.992;2024-03-17T03:32:57;6.40;99.90
30678;DHT22;73746;47.466;8.992;2024-03-17T03:35:29;6.30;99.90
30678;DHT22;73746;47.466;8.992;2024-03-17T03:38:01;6.30;99.90
30678;DHT22;73746;47.466;8.992;2024-03-17T03:40:33;6.20;99.90
30678;DHT22;73746;47.466;8.992;2024-03-17T03:43:05;6.20;99.90
30678;DHT22;73746;47.466;8.992;2024-03-17T03:45:38;6.30;99.90
30678;DHT22;73746;47.466;8.992;2024-03-17T03:48:10;6.30;99.90
30678;DHT22;73746;47.466;8.992;2024-03-17T03:50:42;6.30;99.90
30678;DHT22;73746;47.466;8.992;2024-03-17T03:53:15;6.20;99.90
30678;DHT22;73746;47.466;8.992;2024-03-17T03:55:46;6.20;99.90
30678;DHT22;73746;47.466;8.992;2024-03-17T03:58:19;6.20;99.90
30678;DHT22;73746;47.466;8.992;2024-03-17T04:00:51;6.20;99.90
30678;DHT22;73746;47.466;8.992;2024-03-17T04:03:23;6.20;99.90
30678;DHT22;73746;47.466;8.992;2024-03-17T04:06:06;6.10;99.90
30678;DHT22;73746;47.466;8.992;2024-03-17T04:08:38;6.10;99.90
30678;DHT22;73746;47.466;8.992;2024-03-17T04:11:10;6.10;99.90
30678;DHT22;73746;47.466;8.992;2024-03-17T04:13:42;6.00;99.90
30678;DHT22;73746;47.466;8.992;2024-03-17T04:16:14;5.90;99.90
30678;DHT22;73746;47.466;8.992;2024-03-17T04:18:46;5.80;99.90
30678;DHT22;73746;47.466;8.992;2024-03-17T04:21:18;5.80;99.90
30678;DHT22;73746;47.466;8.992;2024-03-17T04:23:51;5.80;99.90
30678;DHT22;73746;47.466;8.992;2024-03-17T04:26:23;5.80;99.90
30678;DHT22;73746;47.466;8.992;2024-03-17T04:28:54;5.70;99.90
30678;DHT22;73746;47.466;8.992;2024-03-17T04:31:27;5.70;99.90
30678;DHT22;73746;47.466;8.992;2024-03-17T04:33:59;5.60;99.90
30678;DHT22;73746;47.466;8.992;2024-03-17T04:36:30;5.50;99.90
30678;DHT22;73746;47.466;8.992;2024-03-17T04:39:02;5.50;99.90
30678;DHT22;73746;47.466;8.992;2024-03-17T04:41:36;5.50;99.90
30678;DHT22;73746;47.466;8.992;2024-03-17T04:44:09;5.50;99.90
30678;DHT22;73746;47.466;8.992;2024-03-17T04:46:41;5.50;99.90
30678;DHT22;73746;47.466;8.992;2024-03-17T04:49:13;5.50;99.90
30678;DHT22;73746;47.466;8.992;2024-03-17T04:51:45;5.50;99.90
30678;DHT22;73746;47.466;8.992;2024-03-17T04:54:16;5.60;99.90
30678;DHT22;73746;47.466;8.992;2024-03-17T04:56:48;5.60;99.90
30678;DHT22;73746;47.466;8.992;2024-03-17T05:13:15;5.60;99.90
30678;DHT22;73746;47.466;8.992;2024-03-17T05:15:47;5.60;99.90
30678;DHT22;73746;47.466;8.992;2024-03-17T05:18:19;5.60;99.90
30678;DHT22;73746;47.466;8.992;2024-03-17T05:20:58;5.60;99.90
30678;DHT22;73746;47.466;8.992;2024-03-17T05:23:31;5.70;99.90
30678;DHT22;73746;47.466;8.992;2024-03-17T05:26:04;5.60;99.90
30678;DHT22;73746;47.466;8.992;2024-03-17T05:28:36;5.60;99.90
30678;DHT22;73746;47.466;8.992;2024-03-17T05:31:07;5.50;99.90
30678;DHT22;73746;47.466;8.992;2024-03-17T05:33:39;5.40;99.90
30678;DHT22;73746;47.466;8.992;2024-03-17T05:36:11;5.30;99.90
30678;DHT22;73746;47.466;8.992;2024-03-17T05:38:42;5.30;99.90
30678;DHT22;73746;47.466;8.992;2024-03-17T05:41:14;5.20;99.90
30678;DHT22;73746;47.466;8.992;2024-03-17T05:43:46;5.10;99.90
30678;DHT22;73746;47.466;8.992;2024-03-17T05:46:19;5.10;99.90
30678;DHT22;73746;47.466;8.992;2024-03-17T05:48:51;5.10;99.90
30678;DHT22;73746;47.466;8.992;2024-03-17T05:51:22;5.10;99.90
30678;DHT22;73746;47.466;8.992;2024-03-17T05:53:56;5.10;99.90
30678;DHT22;73746;47.466;8.992;2024-03-17T05:56:28;5.20;99.90
30678;DHT22;73746;47.466;8.992;2024-03-17T05:59:00;5.20;99.90
30678;DHT22;73746;47.466;8.992;2024-03-17T06:01:32;5.30;99.90
30678;DHT22;73746;47.466;8.992;2024-03-17T06:04:04;5.30;99.90
30678;DHT22;73746;47.466;8.992;2024-03-17T06:06:37;5.30;99.90
30678;DHT22;73746;47.466;8.992;2024-03-17T06:09:09;5.40;99.90
30678;DHT22;73746;47.466;8.992;2024-03-17T06:11:41;5.50;99.90
30678;DHT22;73746;47.466;8.992;2024-03-17T06:14:13;5.50;99.90
30678;DHT22;73746;47.466;8.992;2024-03-17T06:16:44;5.50;99.90
30678;DHT22;73746;47.466;8.992;2024-03-17T06:19:18;5.60;99.90
30678;DHT22;73746;47.466;8.992;2024-03-17T06:21:50;5.60;99.90
30678;DHT22;73746;47.466;8.992;2024-03-17T06:24:22;5.50;99.90
30678;DHT22;73746;47.466;8.992;2024-03-17T06:26:55;5.60;99.90
30678;DHT22;73746;47.466;8.992;2024-03-17T06:29:26;5.60;99.90
30678;DHT22;73746;47.466;8.992;2024-03-17T06:31:59;5.70;99.90
30678;DHT22;73746;47.466;8.992;2024-03-17T06:34:31;5.70;99.90
30678;DHT22;73746;47.466;8.992;2024-03-17T06:37:02;5.80;99.90
30678;DHT22;73746;47.466;8.992;2024-03-17T06:39:34;5.90;99.90
30678;DHT22;73746;47.466;8.992;2024-03-17T06:42:07;6.00;99.90
30678;DHT22;73746;47.466;8.992;2024-03-17T06:44:39;6.20;99.90
30678;DHT22;73746;47.466;8.992;2024-03-17T06:47:11;6.30;99.90
30678;DHT22;73746;47.466;8.992;2024-03-17T06:49:44;6.50;99.90
30678;DHT22;73746;47.466;8.992;2024-03-17T06:52:16;6.70;99.90
30678;DHT22;73746;47.466;8.992;2024-03-17T06:54:48;6.80;99.90
30678;DHT22;73746;47.466;8.992;2024-03-17T06:57:20;6.90;99.90
30678;DHT22;73746;47.466;8.992;2024-03-17T06:59:52;7.10;99.90
30678;DHT22;73746;47.466;8.992;2024-03-17T07:02:24;7.10;99.90
30678;DHT22;73746;47.466;8.992;2024-03-17T07:04:56;7.20;99.90
30678;DHT22;73746;47.466;8.992;2024-03-17T07:07:28;7.40;99.90
30678;DHT22;73746;47.466;8.992;2024-03-17T07:10:00;7.60;99.90
30678;DHT22;73746;47.466;8.992;2024-03-17T07:12:52;7.80;99.90
30678;DHT22;73746;47.466;8.992;2024-03-17T07:15:24;8.00;99.90
30678;DHT22;73746;47.466;8.992;2024-03-17T07:17:56;8.10;99.90
30678;DHT22;73746;47.466;8.992;2024-03-17T07:20:27;8.40;99.90
30678;DHT22;73746;47.466;8.992;2024-03-17T07:22:59;8.50;99.90
30678;DHT22;73746;47.466;8.992;2024-03-17T07:25:31;8.50;99.90
30678;DHT22;73746;47.466;8.992;2024-03-17T07:28:02;8.50;99.90
30678;DHT22;73746;47.466;8.992;2024-03-17T07:30:34;8.50;99.90
30678;DHT22;73746;47.466;8.992;2024-03-17T07:33:06;8.60;99.90
30678;DHT22;73746;47.466;8.992;2024-03-17T07:35:37;8.70;99.90
30678;DHT22;73746;47.466;8.992;2024-03-17T07:38:10;8.70;99.90
30678;DHT22;73746;47.466;8.992;2024-03-17T07:40:42;8.70;99.90
30678;DHT22;73746;47.466;8.992;2024-03-17T07:43:13;8.80;99.90
30678;DHT22;73746;47.466;8.992;2024-03-17T07:45:45;8.90;99.90
30678;DHT22;73746;47.466;8.992;2024-03-17T07:48:17;9.00;99.90
30678;DHT22;73746;47.466;8.992;2024-03-17T07:50:55;9.10;99.90
30678;DHT22;73746;47.466;8.992;2024-03-17T07:53:27;9.20;99.90
30678;DHT22;73746;47.466;8.992;2024-03-17T07:56:00;9.40;99.90
30678;DHT22;73746;47.466;8.992;2024-03-17T07:58:32;9.50;99.90
30678;DHT22;73746;47.466;8.992;2024-03-17T08:01:06;9.70;99.90
30678;DHT22;73746;47.466;8.992;2024-03-17T08:03:39;9.70;99.90
30678;DHT22;73746;47.466;8.992;2024-03-17T08:06:11;9.80;99.90
30678;DHT22;73746;47.466;8.992;2024-03-17T08:08:42;9.80;99.90
30678;DHT22;73746;47.466;8.992;2024-03-17T08:11:15;10.00;99.90
30678;DHT22;73746;47.466;8.992;2024-03-17T08:13:46;10.20;99.90
30678;DHT22;73746;47.466;8.992;2024-03-17T08:16:18;10.50;99.90
30678;DHT22;73746;47.466;8.992;2024-03-17T08:18:50;10.70;99.90
30678;DHT22;73746;47.466;8.992;2024-03-17T08:21:21;10.70;99.90
30678;DHT22;73746;47.466;8.992;2024-03-17T08:23:53;10.70;99.90
30678;DHT22;73746;47.466;8.992;2024-03-17T08:29:07;11.20;99.90
30678;DHT22;73746;47.466;8.992;2024-03-17T08:31:39;11.60;99.90
30678;DHT22;73746;47.466;8.992;2024-03-17T08:34:10;11.80;99.90
30678;DHT22;73746;47.466;8.992;2024-03-17T08:36:42;11.90;99.90
30678;DHT22;73746;47.466;8.992;2024-03-17T08:41:57;12.00;99.90
30678;DHT22;73746;47.466;8.992;2024-03-17T08:44:48;12.00;99.90
30678;DHT22;73746;47.466;8.992;2024-03-17T08:47:19;12.20;99.90
30678;DHT22;73746;47.466;8.992;2024-03-17T08:49:52;12.50;99.90
30678;DHT22;73746;47.466;8.992;2024-03-17T08:52:24;12.70;99.90
30678;DHT22;73746;47.466;8.992;2024-03-17T08:54:55;12.90;99.90
30678;DHT22;73746;47.466;8.992;2024-03-17T08:57:27;13.20;99.90
30678;DHT22;73746;47.466;8.992;2024-03-17T08:59:59;13.40;99.90
30678;DHT22;73746;47.466;8.992;2024-03-17T09:02:30;13.60;99.90
30678;DHT22;73746;47.466;8.992;2024-03-17T09:05:02;13.80;99.90
30678;DHT22;73746;47.466;8.992;2024-03-17T09:07:37;13.80;99.90
30678;DHT22;73746;47.466;8.992;2024-03-17T09:10:09;13.90;99.90
30678;DHT22;73746;47.466;8.992;2024-03-17T09:12:43;14.00;99.90
30678;DHT22;73746;47.466;8.992;2024-03-17T09:15:16;14.00;99.90
30678;DHT22;73746;47.466;8.992;2024-03-17T09:17:48;14.10;99.90
30678;DHT22;73746;47.466;8.992;2024-03-17T09:20:20;14.20;99.90
30678;DHT22;73746;47.466;8.992;2024-03-17T09:22:51;14.20;99.90
30678;DHT22;73746;47.466;8.992;2024-03-17T09:25:23;14.30;99.90
30678;DHT22;73746;47.466;8.992;2024-03-17T09:27:55;14.30;99.90
30678;DHT22;73746;47.466;8.992;2024-03-17T09:30:27;14.30;99.90
30678;DHT22;73746;47.466;8.992;2024-03-17T09:32:59;14.30;99.90
30678;DHT22;73746;47.466;8.992;2024-03-17T09:35:53;14.30;99.90
30678;DHT22;73746;47.466;8.992;2024-03-17T09:38:25;14.30;99.90
30678;DHT22;73746;47.466;8.992;2024-03-17T09:40:57;14.30;99.90
30678;DHT22;73746;47.466;8.992;2024-03-17T09:43:32;14.30;99.90
30678;DHT22;73746;47.466;8.992;2024-03-17T09:46:06;14.40;99.90
30678;DHT22;73746;47.466;8.992;2024-03-17T09:48:38;14.50;99.90
30678;DHT22;73746;47.466;8.992;2024-03-17T09:53:50;14.60;99.90
30678;DHT22;73746;47.466;8.992;2024-03-17T09:56:22;14.80;99.90
30678;DHT22;73746;47.466;8.992;2024-03-17T09:58:53;14.80;99.90
30678;DHT22;73746;47.466;8.992;2024-03-17T10:01:25;14.80;99.90
30678;DHT22;73746;47.466;8.992;2024-03-17T10:03:57;14.90;99.90
30678;DHT22;73746;47.466;8.992;2024-03-17T10:06:31;14.90;99.90
30678;DHT22;73746;47.466;8.992;2024-03-17T10:09:03;14.90;99.90
30678;DHT22;73746;47.466;8.992;2024-03-17T10:11:36;14.80;99.90
30678;DHT22;73746;47.466;8.992;2024-03-17T10:14:09;14.80;99.90
30678;DHT22;73746;47.466;8.992;2024-03-17T10:16:42;14.80;99.90
30678;DHT22;73746;47.466;8.992;2024-03-17T10:19:16;14.80;99.90
30678;DHT22;73746;47.466;8.992;2024-03-17T10:21:51;14.70;99.90
30678;DHT22;73746;47.466;8.992;2024-03-17T10:27:08;14.70;99.90
30678;DHT22;73746;47.466;8.992;2024-03-17T10:29:42;14.70;99.90
30678;DHT22;73746;47.466;8.992;2024-03-17T10:32:16;14.80;99.90
30678;DHT22;73746;47.466;8.992;2024-03-17T10:34:48;14.80;99.90
30678;DHT22;73746;47.466;8.992;2024-03-17T10:39:23;14.90;99.90
30678;DHT22;73746;47.466;8.992;2024-03-17T10:42:04;14.80;99.90
30678;DHT22;73746;47.466;8.992;2024-03-17T10:44:37;14.90;99.90
30678;DHT22;73746;47.466;8.992;2024-03-17T10:47:13;14.80;99.90
30678;DHT22;73746;47.466;8.992;2024-03-17T10:49:45;14.80;99.90
30678;DHT22;73746;47.466;8.992;2024-03-17T10:52:17;14.70;99.90
30678;DHT22;73746;47.466;8.992;2024-03-17T10:54:51;14.70;99.90
30678;DHT22;73746;47.466;8.992;2024-03-17T10:57:30;14.70;99.90
30678;DHT22;73746;47.466;8.992;2024-03-17T11:00:02;14.60;99.90
30678;DHT22;73746;47.466;8.992;2024-03-17T11:02:36;14.50;99.90
30678;DHT22;73746;47.466;8.992;2024-03-17T11:05:11;14.50;99.90
30678;DHT22;73746;47.466;8.992;2024-03-17T11:07:45;14.40;99.90
30678;DHT22;73746;47.466;8.992;2024-03-17T11:10:20;14.30;99.90
30678;DHT22;73746;47.466;8.992;2024-03-17T11:12:53;14.30;99.90
30678;DHT22;73746;47.466;8.992;2024-03-17T11:15:41;14.30;99.90
30678;DHT22;73746;47.466;8.992;2024-03-17T11:20:13;14.40;99.90
30678;DHT22;73746;47.466;8.992;2024-03-17T11:22:48;14.30;99.90
30678;DHT22;73746;47.466;8.992;2024-03-17T11:28:44;14.20;99.90
30678;DHT22;73746;47.466;8.992;2024-03-17T11:31:32;14.20;99.90
30678;DHT22;73746;47.466;8.992;2024-03-17T11:34:04;14.10;99.90
30678;DHT22;73746;47.466;8.992;2024-03-17T11:36:38;14.00;99.90
30678;DHT22;73746;47.466;8.992;2024-03-17T11:39:11;13.90;99.90
30678;DHT22;73746;47.466;8.992;2024-03-17T11:41:48;13.90;99.90
30678;DHT22;73746;47.466;8.992;2024-03-17T11:44:26;13.80;99.90
30678;DHT22;73746;47.466;8.992;2024-03-17T11:47:00;13.70;99.90
30678;DHT22;73746;47.466;8.992;2024-03-17T11:49:36;13.70;99.90
30678;DHT22;73746;47.466;8.992;2024-03-17T11:52:11;13.60;99.90
30678;DHT22;73746;47.466;8.992;2024-03-17T11:54:44;13.60;99.90
30678;DHT22;73746;47.466;8.992;2024-03-17T11:57:20;13.60;99.90
30678;DHT22;73746;47.466;8.992;2024-03-17T11:59:53;13.60;99.90
30678;DHT22;73746;47.466;8.992;2024-03-17T12:02:26;13.60;99.90
30678;DHT22;73746;47.466;8.992;2024-03-17T12:05:00;13.60;99.90
30678;DHT22;73746;47.466;8.992;2024-03-17T12:07:32;13.60;99.90
30678;DHT22;73746;47.466;8.992;2024-03-17T12:10:04;13.70;99.90
30678;DHT22;73746;47.466;8.992;2024-03-17T12:12:37;13.70;99.90
30678;DHT22;73746;47.466;8.992;2024-03-17T12:15:18;13.80;99.90
30678;DHT22;73746;47.466;8.992;2024-03-17T12:17:54;13.90;99.90
30678;DHT22;73746;47.466;8.992;2024-03-17T12:20:26;14.00;99.90
30678;DHT22;73746;47.466;8.992;2024-03-17T12:22:58;14.00;99.90
30678;DHT22;73746;47.466;8.992;2024-03-17T12:25:31;14.00;99.90
30678;DHT22;73746;47.466;8.992;2024-03-17T12:28:04;14.10;99.90
30678;DHT22;73746;47.466;8.992;2024-03-17T12:30:37;14.00;99.90
30678;DHT22;73746;47.466;8.992;2024-03-17T12:33:10;14.00;99.90
30678;DHT22;73746;47.466;8.992;2024-03-17T12:35:43;14.00;99.90
30678;DHT22;73746;47.466;8.992;2024-03-17T12:38:22;13.90;99.90
30678;DHT22;73746;47.466;8.992;2024-03-17T12:40:54;13.90;99.90
30678;DHT22;73746;47.466;8.992;2024-03-17T12:43:25;14.00;99.90
30678;DHT22;73746;47.466;8.992;2024-03-17T12:45:57;14.00;99.90
30678;DHT22;73746;47.466;8.992;2024-03-17T12:48:29;14.00;99.90
30678;DHT22;73746;47.466;8.992;2024-03-17T12:51:00;14.10;99.90
30678;DHT22;73746;47.466;8.992;2024-03-17T12:53:32;14.20;99.90
30678;DHT22;73746;47.466;8.992;2024-03-17T12:56:04;14.20;99.90
30678;DHT22;73746;47.466;8.992;2024-03-17T12:58:54;14.10;99.90
30678;DHT22;73746;47.466;8.992;2024-03-17T13:01:45;13.90;99.90
30678;DHT22;73746;47.466;8.992;2024-03-17T13:04:16;13.80;99.90
30678;DHT22;73746;47.466;8.992;2024-03-17T13:06:48;13.80;99.90
30678;DHT22;73746;47.466;8.992;2024-03-17T13:09:20;13.80;99.90
30678;DHT22;73746;47.466;8.992;2024-03-17T13:11:53;13.80;99.90
30678;DHT22;73746;47.466;8.992;2024-03-17T13:14:25;13.90;99.90
30678;DHT22;73746;47.466;8.992;2024-03-17T13:16:56;13.80;99.90
30678;DHT22;73746;47.466;8.992;2024-03-17T13:19:28;13.90;99.90
30678;DHT22;73746;47.466;8.992;2024-03-17T13:22:00;13.90;99.90
30678;DHT22;73746;47.466;8.992;2024-03-17T13:24:31;13.90;99.90
30678;DHT22;73746;47.466;8.992;2024-03-17T13:27:03;13.90;99.90
30678;DHT22;73746;47.466;8.992;2024-03-17T13:29:36;13.90;99.90
30678;DHT22;73746;47.466;8.992;2024-03-17T13:32:09;13.90;99.90
30678;DHT22;73746;47.466;8.992;2024-03-17T13:34:40;14.00;99.90
30678;DHT22;73746;47.466;8.992;2024-03-17T13:37:12;13.90;99.90
30678;DHT22;73746;47.466;8.992;2024-03-17T13:39:43;13.80;99.90
30678;DHT22;73746;47.466;8.992;2024-03-17T13:42:15;13.80;99.90
30678;DHT22;73746;47.466;8.992;2024-03-17T13:44:47;13.80;99.90
30678;DHT22;73746;47.466;8.992;2024-03-17T13:47:18;13.80;99.90
30678;DHT22;73746;47.466;8.992;2024-03-17T13:49:50;13.80;99.90
30678;DHT22;73746;47.466;8.992;2024-03-17T13:52:21;13.90;99.90
30678;DHT22;73746;47.466;8.992;2024-03-17T13:54:53;13.90;99.90
30678;DHT22;73746;47.466;8.992;2024-03-17T13:57:26;13.80;99.90
30678;DHT22;73746;47.466;8.992;2024-03-17T13:59:57;13.80;99.90
30678;DHT22;73746;47.466;8.992;2024-03-17T14:02:29;13.70;99.90
30678;DHT22;73746;47.466;8.992;2024-03-17T14:05:01;13.70;99.90
30678;DHT22;73746;47.466;8.992;2024-03-17T14:07:37;13.60;99.90
30678;DHT22;73746;47.466;8.992;2024-03-17T14:10:12;13.60;99.90
30678;DHT22;73746;47.466;8.992;2024-03-17T14:12:44;13.50;99.90
30678;DHT22;73746;47.466;8.992;2024-03-17T14:15:16;13.40;99.90
30678;DHT22;73746;47.466;8.992;2024-03-17T14:17:48;13.30;99.90
30678;DHT22;73746;47.466;8.992;2024-03-17T14:22:58;13.20;99.90
30678;DHT22;73746;47.466;8.992;2024-03-17T14:25:29;13.30;99.90
30678;DHT22;73746;47.466;8.992;2024-03-17T14:28:01;13.20;99.90
30678;DHT22;73746;47.466;8.992;2024-03-17T14:30:33;13.20;99.90
30678;DHT22;73746;47.466;8.992;2024-03-17T14:33:05;13.20;99.90
30678;DHT22;73746;47.466;8.992;2024-03-17T14:35:38;13.20;99.90
30678;DHT22;73746;47.466;8.992;2024-03-17T14:38:11;13.20;99.90
30678;DHT22;73746;47.466;8.992;2024-03-17T14:40:45;13.20;99.90
30678;DHT22;73746;47.466;8.992;2024-03-17T14:43:17;13.20;99.90
30678;DHT22;73746;47.466;8.992;2024-03-17T14:45:49;13.20;99.90
30678;DHT22;73746;47.466;8.992;2024-03-17T14:48:21;13.10;99.90
30678;DHT22;73746;47.466;8.992;2024-03-17T14:50:53;13.00;99.90
30678;DHT22;73746;47.466;8.992;2024-03-17T14:53:25;13.00;99.90
30678;DHT22;73746;47.466;8.992;2024-03-17T14:55:57;13.00;99.90
30678;DHT22;73746;47.466;8.992;2024-03-17T14:58:29;13.00;99.90
30678;DHT22;73746;47.466;8.992;2024-03-17T15:01:01;13.00;99.90
30678;DHT22;73746;47.466;8.992;2024-03-17T15:03:32;13.10;99.90
30678;DHT22;73746;47.466;8.992;2024-03-17T15:06:08;13.10;99.90
30678;DHT22;73746;47.466;8.992;2024-03-17T15:08:38;13.10;99.90
30678;DHT22;73746;47.466;8.992;2024-03-17T15:11:10;13.10;99.90
30678;DHT22;73746;47.466;8.992;2024-03-17T15:13:41;13.00;99.90
30678;DHT22;73746;47.466;8.992;2024-03-17T15:16:14;13.00;99.90
30678;DHT22;73746;47.466;8.992;2024-03-17T15:18:46;12.90;99.90
30678;DHT22;73746;47.466;8.992;2024-03-17T15:21:18;12.90;99.90
30678;DHT22;73746;47.466;8.992;2024-03-17T15:23:50;13.00;99.90
30678;DHT22;73746;47.466;8.992;2024-03-17T15:26:22;13.00;99.90
30678;DHT22;73746;47.466;8.992;2024-03-17T15:28:53;13.00;99.90
30678;DHT22;73746;47.466;8.992;2024-03-17T15:31:26;13.00;99.90
30678;DHT22;73746;47.466;8.992;2024-03-17T15:33:57;13.00;99.90
30678;DHT22;73746;47.466;8.992;2024-03-17T15:36:29;12.90;99.90
30678;DHT22;73746;47.466;8.992;2024-03-17T15:39:01;13.00;99.90
30678;DHT22;73746;47.466;8.992;2024-03-17T15:41:38;13.00;99.90
30678;DHT22;73746;47.466;8.992;2024-03-17T15:44:09;13.00;99.90
30678;DHT22;73746;47.466;8.992;2024-03-17T15:46:41;13.00;99.90
30678;DHT22;73746;47.466;8.992;2024-03-17T15:49:13;13.00;99.90
30678;DHT22;73746;47.466;8.992;2024-03-17T15:51:44;13.10;99.90
30678;DHT22;73746;47.466;8.992;2024-03-17T15:54:16;13.10;99.90
30678;DHT22;73746;47.466;8.992;2024-03-17T15:56:48;13.00;99.90
30678;DHT22;73746;47.466;8.992;2024-03-17T15:59:19;13.00;99.90
30678;DHT22;73746;47.466;8.992;2024-03-17T16:01:52;13.00;99.90
30678;DHT22;73746;47.466;8.992;2024-03-17T16:04:24;13.00;99.90
30678;DHT22;73746;47.466;8.992;2024-03-17T16:06:56;12.90;99.90
30678;DHT22;73746;47.466;8.992;2024-03-17T16:09:27;12.80;99.90
30678;DHT22;73746;47.466;8.992;2024-03-17T16:12:00;12.80;99.90
30678;DHT22;73746;47.466;8.992;2024-03-17T16:14:33;12.80;99.90
30678;DHT22;73746;47.466;8.992;2024-03-17T16:17:07;12.80;99.90
30678;DHT22;73746;47.466;8.992;2024-03-17T16:19:59;12.90;99.90
30678;DHT22;73746;47.466;8.992;2024-03-17T16:25:17;12.80;99.90
30678;DHT22;73746;47.466;8.992;2024-03-17T16:27:49;12.80;99.90
30678;DHT22;73746;47.466;8.992;2024-03-17T16:30:21;12.80;99.90
30678;DHT22;73746;47.466;8.992;2024-03-17T16:32:53;12.80;99.90
30678;DHT22;73746;47.466;8.992;2024-03-17T16:35:24;12.80;99.90
30678;DHT22;73746;47.466;8.992;2024-03-17T16:37:57;12.70;99.90
30678;DHT22;73746;47.466;8.992;2024-03-17T16:40:29;12.70;99.90
30678;DHT22;73746;47.466;8.992;2024-03-17T16:43:01;12.60;99.90
30678;DHT22;73746;47.466;8.992;2024-03-17T16:45:33;12.50;99.90
30678;DHT22;73746;47.466;8.992;2024-03-17T16:48:07;12.50;99.90
30678;DHT22;73746;47.466;8.992;2024-03-17T16:50:40;12.40;99.90